Time;durP1;ratioP1;P1;durP2;ratioP2;P2;SDS_P1;SDS_P2;PMS_P1;PMS_P2;Temp;Humidity;BMP_temperature;BMP_pressure;BME280_temperature;BME280_humidity;BME280_pressure;Samples;Min_cycle;Max_cycle;Signal;HPM_P1;HPM_P2
2023/08/15 00:01:50;;;;;;;7.50;4.00;;;;;;;;;;5101647;28;20700;-66
2023/08/15 00:04:17;;;;;;;7.00;4.10;;;;;;;;;;5104010;28;20487;-66
2023/08/15 00:06:43;;;;;;;4.27;3.83;;;;;;;;;;5097933;28;20485;-66
2023/08/15 00:09:10;;;;;;;4.20;3.77;;;;;;;;;;5102025;28;20493;-68
2023/08/15 00:11:37;;;;;;;6.87;4.27;;;;;;;;;;5101751;28;20743;-67
2023/08/15 00:14:04;;;;;;;7.20;4.30;;;;;;;;;;5105896;28;20450;-67
2023/08/15 00:16:30;;;;;;;7.73;4.10;;;;;;;;;;5104291;28;20463;-67
2023/08/15 00:18:57;;;;;;;5.60;4.70;;;;;;;;;;5100931;28;20542;-67
2023/08/15 00:21:23;;;;;;;5.23;4.17;;;;;;;;;;5101804;28;20566;-67
2023/08/15 00:23:49;;;;;;;7.20;4.00;;;;;;;;;;5101276;28;20471;-67
2023/08/15 00:26:16;;;;;;;7.93;4.33;;;;;;;;;;5102192;28;20691;-67
2023/08/15 00:28:44;;;;;;;6.07;4.40;;;;;;;;;;5109416;28;20486;-67
2023/08/15 00:31:10;;;;;;;5.73;4.70;;;;;;;;;;5107991;28;20474;-66
2023/08/15 00:33:36;;;;;;;4.43;4.03;;;;;;;;;;5100674;28;20546;-65
2023/08/15 00:36:03;;;;;;;6.57;4.80;;;;;;;;;;5105576;28;20483;-66
2023/08/15 00:38:30;;;;;;;5.67;4.30;;;;;;;;;;5100951;28;20530;-66
2023/08/15 00:40:56;;;;;;;4.37;3.70;;;;;;;;;;5101112;28;20482;-65
2023/08/15 00:43:23;;;;;;;4.37;3.67;;;;;;;;;;5102322;28;20542;-66
2023/08/15 00:45:51;;;;;;;6.27;4.33;;;;;;;;;;5099350;28;20466;-66
2023/08/15 00:48:18;;;;;;;5.53;4.50;;;;;;;;;;5102644;28;20560;-66
2023/08/15 00:50:47;;;;;;;9.10;4.57;;;;;;;;;;5101575;28;20526;-67
2023/08/15 00:53:14;;;;;;;7.10;4.70;;;;;;;;;;5101515;28;20489;-67
2023/08/15 00:55:40;;;;;;;7.13;4.83;;;;;;;;;;5100046;28;21046;-66
2023/08/15 00:58:06;;;;;;;4.97;4.33;;;;;;;;;;5101337;28;20541;-67
2023/08/15 01:00:33;;;;;;;6.07;4.50;;;;;;;;;;5101382;28;20510;-67
2023/08/15 01:03:01;;;;;;;6.23;4.27;;;;;;;;;;5100456;28;20531;-67
2023/08/15 01:05:27;;;;;;;5.37;4.00;;;;;;;;;;5100301;28;20478;-66
2023/08/15 01:07:54;;;;;;;7.10;4.40;;;;;;;;;;5101814;28;20697;-67
2023/08/15 01:10:20;;;;;;;5.50;4.70;;;;;;;;;;5101830;28;20546;-66
2023/08/15 01:12:48;;;;;;;5.30;4.77;;;;;;;;;;5104990;28;20481;-68
2023/08/15 01:15:16;;;;;;;5.43;3.87;;;;;;;;;;5100403;28;20839;-67
2023/08/15 01:17:45;;;;;;;4.57;3.80;;;;;;;;;;5100212;28;20449;-67
2023/08/15 01:20:16;;;;;;;5.90;4.60;;;;;;;;;;5106304;28;20460;-68
2023/08/15 01:22:44;;;;;;;5.67;4.43;;;;;;;;;;5101219;28;20475;-66
2023/08/15 01:25:12;;;;;;;7.23;5.27;;;;;;;;;;5099714;28;20478;-67
2023/08/15 01:27:38;;;;;;;5.30;4.47;;;;;;;;;;5102694;28;20486;-67
2023/08/15 01:30:05;;;;;;;7.30;4.23;;;;;;;;;;5100477;28;20516;-68
2023/08/15 01:32:34;;;;;;;5.80;4.47;;;;;;;;;;5100046;28;20459;-66
2023/08/15 01:35:07;;;;;;;5.53;4.13;;;;;;;;;;5098632;28;20526;-66
2023/08/15 01:37:35;;;;;;;4.67;4.27;;;;;;;;;;5101763;28;20478;-65
2023/08/15 01:40:03;;;;;;;7.30;4.73;;;;;;;;;;5100137;28;20475;-65
2023/08/15 01:42:31;;;;;;;5.33;4.60;;;;;;;;;;5099665;28;20467;-66
2023/08/15 01:44:59;;;;;;;7.70;4.60;;;;;;;;;;5102765;28;20494;-66
2023/08/15 01:47:26;;;;;;;5.50;4.90;;;;;;;;;;5100186;28;20443;-66
2023/08/15 01:49:52;;;;;;;4.60;4.20;;;;;;;;;;5104900;28;20560;-67
2023/08/15 01:52:18;;;;;;;6.30;4.23;;;;;;;;;;5099578;28;20554;-67
2023/08/15 01:54:45;;;;;;;5.97;4.80;;;;;;;;;;5099609;28;20481;-67
2023/08/15 01:57:11;;;;;;;6.67;4.00;;;;;;;;;;5102592;28;20506;-67
2023/08/15 01:59:39;;;;;;;6.67;4.43;;;;;;;;;;5100597;28;20522;-67
2023/08/15 02:02:06;;;;;;;4.90;4.40;;;;;;;;;;5099970;28;20518;-67
2023/08/15 02:04:33;;;;;;;5.93;5.10;;;;;;;;;;5105398;28;20558;-65
2023/08/15 02:06:59;;;;;;;4.67;4.27;;;;;;;;;;5099672;28;20459;-65
2023/08/15 02:09:26;;;;;;;9.60;4.67;;;;;;;;;;5098932;28;20542;-66
2023/08/15 02:11:52;;;;;;;6.43;4.90;;;;;;;;;;5101431;28;20562;-66
2023/08/15 02:14:19;;;;;;;5.10;4.10;;;;;;;;;;5099133;28;20466;-66
2023/08/15 02:16:46;;;;;;;5.07;4.10;;;;;;;;;;5099474;28;20875;-66
2023/08/15 02:19:13;;;;;;;5.07;4.67;;;;;;;;;;5097668;28;20910;-66
2023/08/15 02:21:39;;;;;;;4.50;4.07;;;;;;;;;;5094959;28;20483;-66
2023/08/15 02:24:06;;;;;;;5.97;4.77;;;;;;;;;;5099162;28;20557;-67
2023/08/15 02:26:35;;;;;;;6.93;5.23;;;;;;;;;;5099100;28;20487;-66
2023/08/15 02:29:02;;;;;;;4.90;4.03;;;;;;;;;;5099122;28;20459;-66
2023/08/15 02:31:30;;;;;;;5.20;4.70;;;;;;;;;;5100172;28;20578;-67
2023/08/15 02:33:57;;;;;;;6.33;5.00;;;;;;;;;;5093979;28;20514;-67
2023/08/15 02:36:24;;;;;;;6.73;4.60;;;;;;;;;;5101690;28;20862;-66
2023/08/15 02:38:50;;;;;;;7.93;4.43;;;;;;;;;;5099235;28;20523;-66
2023/08/15 02:41:17;;;;;;;7.83;4.83;;;;;;;;;;5099211;28;20475;-66
2023/08/15 02:43:43;;;;;;;6.43;4.77;;;;;;;;;;5098227;28;20884;-67
2023/08/15 02:46:09;;;;;;;6.63;4.80;;;;;;;;;;5098620;28;20483;-66
2023/08/15 02:48:36;;;;;;;6.07;5.47;;;;;;;;;;5098994;28;20936;-66
2023/08/15 02:51:03;;;;;;;7.03;5.23;;;;;;;;;;5102283;28;20605;-66
2023/08/15 02:53:30;;;;;;;5.50;5.00;;;;;;;;;;5103894;28;20472;-66
2023/08/15 02:55:56;;;;;;;5.13;4.63;;;;;;;;;;5102685;28;20582;-66
2023/08/15 02:58:23;;;;;;;7.50;5.60;;;;;;;;;;5102660;28;20443;-66
2023/08/15 03:00:49;;;;;;;7.47;5.20;;;;;;;;;;5107193;28;20518;-66
2023/08/15 03:03:15;;;;;;;6.00;4.93;;;;;;;;;;5103506;28;20484;-66
2023/08/15 03:05:42;;;;;;;6.53;5.30;;;;;;;;;;5101820;28;20509;-66
2023/08/15 03:08:10;;;;;;;6.87;5.40;;;;;;;;;;5103751;28;21002;-65
2023/08/15 03:10:38;;;;;;;6.73;5.70;;;;;;;;;;5108188;28;20513;-66
2023/08/15 03:13:04;;;;;;;5.20;4.70;;;;;;;;;;5102960;28;20450;-66
2023/08/15 03:15:31;;;;;;;6.73;4.90;;;;;;;;;;5111441;28;20479;-66
2023/08/15 03:17:57;;;;;;;6.03;5.27;;;;;;;;;;5108715;28;20446;-66
2023/08/15 03:20:24;;;;;;;5.70;5.20;;;;;;;;;;5097718;28;20486;-66
2023/08/15 03:22:50;;;;;;;6.00;5.40;;;;;;;;;;5103106;28;20486;-66
2023/08/15 03:25:18;;;;;;;5.53;4.70;;;;;;;;;;5107391;28;20458;-66
2023/08/15 03:27:44;;;;;;;7.07;5.30;;;;;;;;;;5094378;28;20549;-66
2023/08/15 03:30:11;;;;;;;7.23;5.20;;;;;;;;;;5102822;28;20550;-67
2023/08/15 03:32:37;;;;;;;7.70;6.57;;;;;;;;;;5103162;28;20522;-66
2023/08/15 03:35:04;;;;;;;7.70;5.63;;;;;;;;;;5101690;28;20582;-66
2023/08/15 03:37:30;;;;;;;6.10;5.20;;;;;;;;;;5103146;28;20451;-66
2023/08/15 03:39:57;;;;;;;6.30;5.70;;;;;;;;;;5102027;28;20534;-66
2023/08/15 03:42:25;;;;;;;10.90;5.50;;;;;;;;;;5102024;28;20478;-65
2023/08/15 03:44:51;;;;;;;5.67;4.80;;;;;;;;;;5101977;28;20488;-65
2023/08/15 03:47:18;;;;;;;6.03;5.40;;;;;;;;;;5102106;28;20447;-66
2023/08/15 03:49:44;;;;;;;5.73;5.20;;;;;;;;;;5104223;28;20504;-65
2023/08/15 03:52:10;;;;;;;6.70;5.17;;;;;;;;;;5101452;28;20450;-66
2023/08/15 03:54:37;;;;;;;6.40;5.63;;;;;;;;;;5106016;28;20459;-70
2023/08/15 03:57:03;;;;;;;7.00;5.70;;;;;;;;;;5103736;28;20827;-69
2023/08/15 03:59:31;;;;;;;7.77;6.07;;;;;;;;;;5100709;28;20518;-68
2023/08/15 04:01:57;;;;;;;6.40;5.80;;;;;;;;;;5101118;28;20479;-69
2023/08/15 04:04:24;;;;;;;7.07;6.07;;;;;;;;;;5100986;28;20483;-69
2023/08/15 04:06:50;;;;;;;7.13;5.70;;;;;;;;;;5104550;28;20537;-68
2023/08/15 04:09:16;;;;;;;6.53;5.90;;;;;;;;;;5102069;28;20478;-69
2023/08/15 04:11:43;;;;;;;8.23;5.10;;;;;;;;;;5099423;28;20550;-69
2023/08/15 04:14:09;;;;;;;7.93;5.53;;;;;;;;;;5099305;28;20471;-69
2023/08/15 04:16:38;;;;;;;8.03;5.60;;;;;;;;;;5101141;28;20561;-68
2023/08/15 04:19:05;;;;;;;6.67;5.37;;;;;;;;;;5099771;28;20467;-67
2023/08/15 04:21:31;;;;;;;8.13;5.63;;;;;;;;;;5099794;28;20993;-69
2023/08/15 04:23:57;;;;;;;7.43;5.90;;;;;;;;;;5101073;28;20471;-69
2023/08/15 04:26:24;;;;;;;8.77;5.83;;;;;;;;;;5100623;28;20719;-68
2023/08/15 04:28:50;;;;;;;7.90;6.87;;;;;;;;;;5100047;28;20926;-70
2023/08/15 04:31:17;;;;;;;9.37;6.43;;;;;;;;;;5102014;28;21085;-69
2023/08/15 04:33:44;;;;;;;6.70;5.70;;;;;;;;;;5100027;28;20510;-69
2023/08/15 04:36:11;;;;;;;7.10;6.47;;;;;;;;;;5099714;28;20462;-69
2023/08/15 04:38:37;;;;;;;6.63;5.90;;;;;;;;;;5100675;28;20487;-68
2023/08/15 04:41:05;;;;;;;8.30;6.03;;;;;;;;;;5100022;28;20486;-69
2023/08/15 04:43:31;;;;;;;6.77;6.03;;;;;;;;;;5098801;28;20963;-69
2023/08/15 04:45:58;;;;;;;7.83;5.67;;;;;;;;;;5102040;28;20486;-69
2023/08/15 04:48:24;;;;;;;7.83;5.03;;;;;;;;;;5101065;28;20563;-69
2023/08/15 04:50:52;;;;;;;9.30;6.20;;;;;;;;;;5099515;28;20526;-70
2023/08/15 04:53:18;;;;;;;9.97;6.60;;;;;;;;;;5108674;28;20519;-69
2023/08/15 04:55:45;;;;;;;6.73;6.00;;;;;;;;;;5100593;28;20488;-69
2023/08/15 04:58:11;;;;;;;6.43;5.93;;;;;;;;;;5099846;28;20485;-69
2023/08/15 05:00:38;;;;;;;6.27;5.30;;;;;;;;;;5102009;28;20455;-70
2023/08/15 05:03:04;;;;;;;7.40;6.00;;;;;;;;;;5100442;28;20447;-69
2023/08/15 05:05:31;;;;;;;6.30;5.70;;;;;;;;;;5098069;28;20460;-69
2023/08/15 05:07:58;;;;;;;8.13;5.53;;;;;;;;;;5100831;28;20530;-70
2023/08/15 05:10:25;;;;;;;7.03;5.53;;;;;;;;;;5099016;28;20554;-68
2023/08/15 05:12:51;;;;;;;12.53;6.30;;;;;;;;;;5096419;28;20491;-68
2023/08/15 05:15:18;;;;;;;9.03;6.30;;;;;;;;;;5106118;28;20451;-68
2023/08/15 05:17:44;;;;;;;10.67;7.20;;;;;;;;;;5106436;28;20547;-66
2023/08/15 05:20:12;;;;;;;14.63;8.43;;;;;;;;;;5098304;28;20463;-65
2023/08/15 05:22:38;;;;;;;13.30;8.47;;;;;;;;;;5099745;28;20443;-66
2023/08/15 05:25:06;;;;;;;7.40;4.73;;;;;;;;;;5100562;28;20554;-66
2023/08/15 05:27:33;;;;;;;8.00;4.73;;;;;;;;;;5091146;28;20487;-66
2023/08/15 05:29:59;;;;;;;5.30;4.63;;;;;;;;;;5100218;28;20447;-67
2023/08/15 05:32:26;;;;;;;5.73;4.50;;;;;;;;;;5100210;28;20506;-65
2023/08/15 05:34:52;;;;;;;7.13;4.53;;;;;;;;;;5099148;28;20545;-65
2023/08/15 05:37:19;;;;;;;4.83;3.77;;;;;;;;;;5099354;28;20447;-65
2023/08/15 05:39:45;;;;;;;4.33;3.20;;;;;;;;;;5098868;28;20486;-65
2023/08/15 05:42:17;;;;;;;4.93;3.40;;;;;;;;;;5104607;28;20525;-65
2023/08/15 05:44:43;;;;;;;3.63;3.27;;;;;;;;;;5101723;28;21039;-66
2023/08/15 05:47:10;;;;;;;4.23;3.23;;;;;;;;;;5100895;28;21019;-65
2023/08/15 05:49:36;;;;;;;6.07;2.50;;;;;;;;;;5098621;28;20526;-65
2023/08/15 05:52:03;;;;;;;4.40;3.00;;;;;;;;;;5104526;28;20505;-65
2023/08/15 05:54:29;;;;;;;2.60;2.00;;;;;;;;;;5101909;28;20480;-65
2023/08/15 05:56:56;;;;;;;3.50;2.37;;;;;;;;;;5099826;28;20459;-64
2023/08/15 05:59:24;;;;;;;3.17;2.20;;;;;;;;;;5097968;28;20468;-64
2023/08/15 06:01:50;;;;;;;3.20;2.40;;;;;;;;;;5096345;28;20486;-64
2023/08/15 06:04:16;;;;;;;3.57;2.30;;;;;;;;;;5097882;28;20515;-67
2023/08/15 06:06:43;;;;;;;3.70;2.57;;;;;;;;;;5098310;28;20462;-64
2023/08/15 06:09:10;;;;;;;4.27;2.90;;;;;;;;;;5100208;28;20458;-64
2023/08/15 06:11:36;;;;;;;5.20;2.40;;;;;;;;;;5098794;28;20582;-64
2023/08/15 06:14:02;;;;;;;2.90;2.60;;;;;;;;;;5089458;28;20625;-64
2023/08/15 06:16:31;;;;;;;4.43;2.83;;;;;;;;;;5098741;28;20518;-64
2023/08/15 06:18:57;;;;;;;3.80;2.97;;;;;;;;;;5099167;28;20454;-64
2023/08/15 06:21:23;;;;;;;3.70;3.03;;;;;;;;;;5098834;28;20512;-64
2023/08/15 06:23:50;;;;;;;3.60;3.00;;;;;;;;;;5099308;28;20522;-65
2023/08/15 06:26:16;;;;;;;5.10;3.20;;;;;;;;;;5099475;28;20526;-65
2023/08/15 06:28:43;;;;;;;5.10;3.37;;;;;;;;;;5098900;28;20526;-65
2023/08/15 06:31:09;;;;;;;4.00;3.60;;;;;;;;;;5100507;28;20527;-64
2023/08/15 06:33:37;;;;;;;5.00;3.83;;;;;;;;;;5110236;28;20518;-64
2023/08/15 06:36:04;;;;;;;4.27;3.40;;;;;;;;;;5104250;28;20471;-65
2023/08/15 06:38:31;;;;;;;6.50;4.50;;;;;;;;;;5098539;28;20478;-65
2023/08/15 06:40:58;;;;;;;5.90;4.60;;;;;;;;;;5101879;28;20490;-64
2023/08/15 06:43:24;;;;;;;6.00;4.57;;;;;;;;;;5098486;28;20451;-65
2023/08/15 06:45:51;;;;;;;6.67;4.63;;;;;;;;;;5097698;28;20550;-64
2023/08/15 06:48:17;;;;;;;4.40;4.00;;;;;;;;;;5106142;28;20450;-65
2023/08/15 06:50:45;;;;;;;5.30;4.33;;;;;;;;;;5097523;28;20490;-65
2023/08/15 06:53:11;;;;;;;4.87;4.33;;;;;;;;;;5097782;28;20531;-64
2023/08/15 06:55:37;;;;;;;4.90;4.30;;;;;;;;;;5098906;28;20522;-65
2023/08/15 06:58:04;;;;;;;5.27;3.93;;;;;;;;;;5101770;28;20515;-66
2023/08/15 07:00:30;;;;;;;4.50;4.10;;;;;;;;;;5098982;28;20542;-64
2023/08/15 07:02:57;;;;;;;6.70;3.70;;;;;;;;;;5099913;28;21091;-64
2023/08/15 07:05:23;;;;;;;6.30;4.80;;;;;;;;;;5101547;28;20527;-65
2023/08/15 07:07:51;;;;;;;6.93;3.90;;;;;;;;;;5107636;28;20450;-65
2023/08/15 07:10:17;;;;;;;4.70;3.40;;;;;;;;;;5097825;28;20481;-65
2023/08/15 07:12:44;;;;;;;4.00;3.30;;;;;;;;;;5100668;28;20543;-65
2023/08/15 07:15:10;;;;;;;3.80;3.30;;;;;;;;;;5100856;28;20566;-65
2023/08/15 07:17:37;;;;;;;4.47;3.40;;;;;;;;;;5096186;28;20501;-65
2023/08/15 07:20:04;;;;;;;2.40;2.20;;;;;;;;;;5097130;28;20530;-65
2023/08/15 07:22:31;;;;;;;2.93;2.60;;;;;;;;;;5098415;28;20463;-65
2023/08/15 07:24:58;;;;;;;4.30;2.80;;;;;;;;;;5098974;28;20848;-65
2023/08/15 07:27:25;;;;;;;4.17;2.93;;;;;;;;;;5098813;28;20507;-66
2023/08/15 07:29:51;;;;;;;4.17;2.70;;;;;;;;;;5102092;28;20530;-65
2023/08/15 07:32:17;;;;;;;5.03;3.10;;;;;;;;;;5099242;28;21079;-65
2023/08/15 07:34:45;;;;;;;4.33;2.83;;;;;;;;;;5097963;28;20502;-65
2023/08/15 07:37:11;;;;;;;3.27;2.97;;;;;;;;;;5102630;28;20455;-66
2023/08/15 07:39:38;;;;;;;3.47;2.80;;;;;;;;;;5110684;28;20496;-66
2023/08/15 07:42:05;;;;;;;3.50;2.80;;;;;;;;;;5102208;28;21077;-66
2023/08/15 07:44:32;;;;;;;4.27;2.87;;;;;;;;;;5105928;28;20890;-66
2023/08/15 07:46:58;;;;;;;4.40;2.93;;;;;;;;;;5102383;28;20531;-65
2023/08/15 07:49:25;;;;;;;4.63;3.13;;;;;;;;;;5095605;28;20558;-65
2023/08/15 07:51:52;;;;;;;5.30;3.13;;;;;;;;;;5103833;28;20942;-66
2023/08/15 07:54:19;;;;;;;6.33;3.23;;;;;;;;;;5103202;28;21250;-65
2023/08/15 07:56:45;;;;;;;4.90;3.57;;;;;;;;;;5104756;28;20466;-65
2023/08/15 07:59:13;;;;;;;3.07;2.70;;;;;;;;;;5101612;28;20467;-66
2023/08/15 08:01:39;;;;;;;4.43;2.87;;;;;;;;;;5101709;28;20515;-66
2023/08/15 08:04:06;;;;;;;3.20;2.80;;;;;;;;;;5105240;28;21108;-66
2023/08/15 08:06:32;;;;;;;4.73;3.10;;;;;;;;;;5101889;28;20474;-66
2023/08/15 08:08:59;;;;;;;3.40;2.80;;;;;;;;;;5105291;28;20546;-66
2023/08/15 08:11:25;;;;;;;3.90;3.23;;;;;;;;;;5110269;28;20962;-66
2023/08/15 08:13:51;;;;;;;4.70;3.40;;;;;;;;;;5102631;28;20622;-66
2023/08/15 08:16:19;;;;;;;4.10;2.93;;;;;;;;;;5102118;28;20459;-66
2023/08/15 08:18:46;;;;;;;3.63;2.93;;;;;;;;;;5100797;28;20439;-66
2023/08/15 08:21:12;;;;;;;4.13;2.73;;;;;;;;;;5104116;28;21018;-67
2023/08/15 08:23:39;;;;;;;4.43;3.57;;;;;;;;;;5101000;28;20459;-67
2023/08/15 08:26:05;;;;;;;4.70;3.77;;;;;;;;;;5100249;28;20455;-66
2023/08/15 08:28:32;;;;;;;5.77;3.93;;;;;;;;;;5100918;28;20479;-66
2023/08/15 08:30:58;;;;;;;4.53;3.67;;;;;;;;;;5101106;28;20459;-66
2023/08/15 08:33:28;;;;;;;5.33;3.97;;;;;;;;;;5101015;28;20494;-66
2023/08/15 08:35:55;;;;;;;4.97;4.00;;;;;;;;;;5100701;28;20470;-66
2023/08/15 08:38:21;;;;;;;4.03;3.63;;;;;;;;;;5108407;28;20461;-67
2023/08/15 08:40:48;;;;;;;6.00;3.83;;;;;;;;;;5105103;28;21031;-67
2023/08/15 08:43:14;;;;;;;4.73;4.20;;;;;;;;;;5112743;28;20465;-67
2023/08/15 08:45:41;;;;;;;4.33;3.57;;;;;;;;;;5109280;28;20480;-66
2023/08/15 08:48:09;;;;;;;5.90;3.97;;;;;;;;;;5100358;28;20730;-66
2023/08/15 08:50:37;;;;;;;8.00;3.60;;;;;;;;;;5099599;28;20519;-67
2023/08/15 08:53:03;;;;;;;5.50;3.70;;;;;;;;;;5101045;28;20498;-65
2023/08/15 08:55:31;;;;;;;5.27;3.60;;;;;;;;;;5100987;28;20529;-65
2023/08/15 08:57:59;;;;;;;5.33;4.03;;;;;;;;;;5100704;28;20511;-66
2023/08/15 09:00:27;;;;;;;4.17;3.60;;;;;;;;;;5112074;28;20479;-65
2023/08/15 09:02:55;;;;;;;5.33;4.13;;;;;;;;;;5110712;28;20813;-64
2023/08/15 09:05:22;;;;;;;6.00;4.37;;;;;;;;;;5100675;28;20459;-65
2023/08/15 09:07:50;;;;;;;5.23;3.80;;;;;;;;;;5100278;28;20481;-64
2023/08/15 09:10:16;;;;;;;6.00;4.23;;;;;;;;;;5099639;28;20471;-64
2023/08/15 09:12:46;;;;;;;6.17;4.20;;;;;;;;;;5099757;28;21018;-64
2023/08/15 09:15:13;;;;;;;5.73;4.90;;;;;;;;;;5098895;28;20471;-64
2023/08/15 09:17:40;;;;;;;4.87;4.47;;;;;;;;;;5104868;28;20443;-66
2023/08/15 09:20:11;;;;;;;6.60;4.83;;;;;;;;;;5102194;28;20553;-67
2023/08/15 09:22:37;;;;;;;5.77;4.03;;;;;;;;;;5100240;28;20503;-67
2023/08/15 09:25:06;;;;;;;8.10;5.00;;;;;;;;;;5100118;28;20981;-64
2023/08/15 09:27:32;;;;;;;6.50;5.30;;;;;;;;;;5104384;28;20510;-64
2023/08/15 09:30:07;;;;;;;9.20;5.97;;;;;;;;;;5104682;28;20477;-64
2023/08/15 09:32:33;;;;;;;8.77;6.03;;;;;;;;;;5099090;28;20560;-64
2023/08/15 09:34:59;;;;;;;5.93;5.13;;;;;;;;;;5099622;28;20946;-65
2023/08/15 09:37:26;;;;;;;9.00;5.67;;;;;;;;;;5096543;28;20511;-64
2023/08/15 09:39:53;;;;;;;10.17;5.40;;;;;;;;;;5098485;28;20459;-64
2023/08/15 09:42:21;;;;;;;5.27;4.87;;;;;;;;;;5098434;28;21137;-64
2023/08/15 09:44:50;;;;;;;6.57;5.20;;;;;;;;;;5098143;28;20451;-67
2023/08/15 09:47:17;;;;;;;7.67;5.53;;;;;;;;;;5097885;28;20459;-69
2023/08/15 09:49:45;;;;;;;7.57;6.00;;;;;;;;;;5104330;28;21049;-69
2023/08/15 09:52:12;;;;;;;6.77;5.80;;;;;;;;;;5095751;28;20480;-67
2023/08/15 09:54:40;;;;;;;7.30;6.60;;;;;;;;;;5097977;28;20967;-67
2023/08/15 09:57:07;;;;;;;7.83;6.10;;;;;;;;;;5099555;28;20554;-67
2023/08/15 09:59:36;;;;;;;7.43;6.30;;;;;;;;;;5098917;28;20546;-69
2023/08/15 10:02:03;;;;;;;9.43;7.37;;;;;;;;;;5098685;28;20451;-69
2023/08/15 10:04:32;;;;;;;10.03;7.23;;;;;;;;;;5100057;28;20450;-69
2023/08/15 10:06:59;;;;;;;10.53;7.60;;;;;;;;;;5099280;28;21336;-69
2023/08/15 10:09:26;;;;;;;10.27;8.10;;;;;;;;;;5106433;28;20518;-70
2023/08/15 10:11:53;;;;;;;7.83;7.10;;;;;;;;;;5099312;28;20514;-69
2023/08/15 10:14:19;;;;;;;9.10;7.73;;;;;;;;;;5098870;28;20783;-67
2023/08/15 10:16:47;;;;;;;9.17;8.27;;;;;;;;;;5099220;28;21021;-67
2023/08/15 10:19:15;;;;;;;9.47;7.87;;;;;;;;;;5099141;28;20542;-67
2023/08/15 10:21:48;;;;;;;9.20;8.17;;;;;;;;;;5097749;28;20469;-67
2023/08/15 10:24:15;;;;;;;10.73;9.50;;;;;;;;;;5096527;28;20454;-67
2023/08/15 10:26:43;;;;;;;11.43;10.30;;;;;;;;;;5104445;28;20458;-69
2023/08/15 10:29:09;;;;;;;12.83;11.27;;;;;;;;;;5105849;28;20543;-69
2023/08/15 10:31:36;;;;;;;14.37;12.00;;;;;;;;;;5098102;28;20490;-69
2023/08/15 10:34:04;;;;;;;12.17;10.87;;;;;;;;;;5097955;28;20485;-69
2023/08/15 10:36:31;;;;;;;12.30;10.60;;;;;;;;;;5100836;28;20506;-69
2023/08/15 10:38:57;;;;;;;12.83;11.17;;;;;;;;;;5098110;28;20447;-69
2023/08/15 10:41:25;;;;;;;12.43;11.23;;;;;;;;;;5098780;28;20455;-67
2023/08/15 10:43:54;;;;;;;17.03;11.57;;;;;;;;;;5105294;28;20484;-67
2023/08/15 10:46:25;;;;;;;14.13;12.57;;;;;;;;;;5099264;28;20451;-68
2023/08/15 10:48:55;;;;;;;13.13;11.47;;;;;;;;;;5092059;28;20482;-67
2023/08/15 10:51:23;;;;;;;14.83;11.00;;;;;;;;;;5092623;28;20459;-67
2023/08/15 10:53:50;;;;;;;11.87;10.67;;;;;;;;;;5099393;28;20471;-67
2023/08/15 10:56:21;;;;;;;11.30;10.20;;;;;;;;;;5098828;28;20934;-67
2023/08/15 10:58:48;;;;;;;13.40;10.03;;;;;;;;;;5094802;28;20447;-67
2023/08/15 11:01:16;;;;;;;16.23;11.67;;;;;;;;;;5105986;28;20474;-68
2023/08/15 11:03:43;;;;;;;11.37;10.20;;;;;;;;;;5099166;28;20523;-67
2023/08/15 11:06:09;;;;;;;13.90;10.47;;;;;;;;;;5103249;28;20478;-69
2023/08/15 11:08:42;;;;;;;11.80;9.70;;;;;;;;;;5097649;28;20447;-70
2023/08/15 11:11:09;;;;;;;11.77;9.47;;;;;;;;;;5100403;28;20445;-70
2023/08/15 11:13:39;;;;;;;12.03;10.83;;;;;;;;;;5101683;28;20470;-70
2023/08/15 11:16:05;;;;;;;13.43;10.47;;;;;;;;;;5101086;28;20947;-70
2023/08/15 11:18:32;;;;;;;14.30;10.83;;;;;;;;;;5103786;28;20485;-70
2023/08/15 11:20:59;;;;;;;12.90;10.33;;;;;;;;;;5101592;28;20478;-69
2023/08/15 11:23:27;;;;;;;10.57;9.47;;;;;;;;;;5104853;28;20550;-67
2023/08/15 11:25:54;;;;;;;11.77;9.60;;;;;;;;;;5105252;28;20479;-68
2023/08/15 11:28:21;;;;;;;11.87;10.20;;;;;;;;;;5102047;28;20573;-70
2023/08/15 11:30:47;;;;;;;12.93;10.00;;;;;;;;;;5101534;28;20526;-70
2023/08/15 11:33:14;;;;;;;12.53;10.43;;;;;;;;;;5102129;28;20498;-70
2023/08/15 11:35:40;;;;;;;15.67;10.50;;;;;;;;;;5100884;28;20446;-67
2023/08/15 11:38:10;;;;;;;12.87;10.53;;;;;;;;;;5101569;28;20534;-67
2023/08/15 11:40:37;;;;;;;12.23;10.90;;;;;;;;;;5103952;28;20968;-67
2023/08/15 11:43:05;;;;;;;11.67;10.57;;;;;;;;;;5102553;28;20550;-67
2023/08/15 11:45:32;;;;;;;11.03;8.93;;;;;;;;;;5101052;28;20454;-70
2023/08/15 11:47:59;;;;;;;12.57;9.70;;;;;;;;;;5102193;28;20482;-68
2023/08/15 11:50:26;;;;;;;11.13;9.90;;;;;;;;;;5101063;28;20537;-68
2023/08/15 11:52:53;;;;;;;11.93;10.27;;;;;;;;;;5100998;28;20483;-69
2023/08/15 11:55:19;;;;;;;11.37;9.27;;;;;;;;;;5103964;28;20474;-68
2023/08/15 11:57:46;;;;;;;10.00;8.57;;;;;;;;;;5104169;28;20493;-68
2023/08/15 12:00:15;;;;;;;8.87;7.90;;;;;;;;;;5092381;28;20534;-69
2023/08/15 12:02:42;;;;;;;8.67;7.83;;;;;;;;;;5101442;28;20459;-68
2023/08/15 12:05:09;;;;;;;9.10;7.97;;;;;;;;;;5100094;28;20449;-68
2023/08/15 12:07:36;;;;;;;13.13;8.30;;;;;;;;;;5100011;28;20451;-68
2023/08/15 12:10:03;;;;;;;13.70;8.77;;;;;;;;;;5101262;28;20644;-68
2023/08/15 12:12:29;;;;;;;9.20;8.30;;;;;;;;;;5100430;28;20459;-68
2023/08/15 12:14:56;;;;;;;9.57;7.47;;;;;;;;;;5099968;28;20534;-68
2023/08/15 12:17:23;;;;;;;9.40;7.67;;;;;;;;;;5104331;28;20602;-68
2023/08/15 12:19:50;;;;;;;8.00;7.30;;;;;;;;;;5101796;28;20447;-68
2023/08/15 12:22:16;;;;;;;8.27;6.67;;;;;;;;;;5105350;28;20479;-68
2023/08/15 12:24:43;;;;;;;8.80;7.60;;;;;;;;;;5102848;28;20482;-68
2023/08/15 12:27:09;;;;;;;10.80;7.93;;;;;;;;;;5101019;28;20770;-69
2023/08/15 12:29:35;;;;;;;8.50;7.60;;;;;;;;;;5109722;28;20571;-68
2023/08/15 12:32:02;;;;;;;10.40;8.60;;;;;;;;;;5101517;28;20821;-68
2023/08/15 12:34:30;;;;;;;10.20;8.17;;;;;;;;;;5100682;28;20650;-68
2023/08/15 12:36:56;;;;;;;13.53;8.23;;;;;;;;;;5106117;28;20455;-68
2023/08/15 12:39:23;;;;;;;7.90;7.10;;;;;;;;;;5101261;28;20478;-68
2023/08/15 12:41:49;;;;;;;7.20;6.47;;;;;;;;;;5097850;28;20474;-68
2023/08/15 12:44:16;;;;;;;13.10;8.20;;;;;;;;;;5101109;28;20885;-68
2023/08/15 12:46:43;;;;;;;7.90;7.10;;;;;;;;;;5099630;28;21009;-68
2023/08/15 12:49:09;;;;;;;11.33;7.57;;;;;;;;;;5099832;28;20486;-68
2023/08/15 12:51:37;;;;;;;12.53;7.73;;;;;;;;;;5104572;28;20466;-68
2023/08/15 12:54:04;;;;;;;7.33;6.73;;;;;;;;;;5098886;28;20475;-68
2023/08/15 12:56:30;;;;;;;9.43;8.53;;;;;;;;;;5098855;28;20515;-68
2023/08/15 12:58:57;;;;;;;9.73;7.97;;;;;;;;;;5105120;28;20478;-68
2023/08/15 13:01:24;;;;;;;11.40;8.00;;;;;;;;;;5099653;28;20457;-68
2023/08/15 13:03:51;;;;;;;9.37;7.60;;;;;;;;;;5102123;28;21105;-68
2023/08/15 13:06:17;;;;;;;9.50;8.70;;;;;;;;;;5098143;28;20459;-68
2023/08/15 13:08:45;;;;;;;9.20;8.30;;;;;;;;;;5107162;28;20539;-68
2023/08/15 13:11:12;;;;;;;8.93;8.23;;;;;;;;;;5099023;28;20641;-68
2023/08/15 13:13:38;;;;;;;8.07;7.37;;;;;;;;;;5097763;28;20481;-68
2023/08/15 13:16:05;;;;;;;8.90;7.60;;;;;;;;;;5098448;28;20451;-68
2023/08/15 13:18:32;;;;;;;10.00;6.87;;;;;;;;;;5099276;28;20494;-68
2023/08/15 13:20:58;;;;;;;6.90;6.23;;;;;;;;;;5097102;28;20965;-68
2023/08/15 13:23:24;;;;;;;11.47;6.30;;;;;;;;;;5099159;28;20930;-68
2023/08/15 13:25:52;;;;;;;8.30;6.47;;;;;;;;;;5099314;28;20463;-68
2023/08/15 13:28:19;;;;;;;7.23;6.53;;;;;;;;;;5105130;28;20490;-68
2023/08/15 13:30:46;;;;;;;7.90;6.10;;;;;;;;;;5104024;28;20458;-68
2023/08/15 13:33:13;;;;;;;8.10;7.30;;;;;;;;;;5096531;28;20494;-68
2023/08/15 13:35:39;;;;;;;8.97;6.37;;;;;;;;;;5101326;28;20538;-67
2023/08/15 13:38:06;;;;;;;7.50;6.07;;;;;;;;;;5095531;28;20490;-68
2023/08/15 13:40:32;;;;;;;7.13;5.80;;;;;;;;;;5096192;28;20473;-68
2023/08/15 13:43:00;;;;;;;6.37;5.73;;;;;;;;;;5098066;28;20510;-68
2023/08/15 13:45:27;;;;;;;7.83;5.00;;;;;;;;;;5097979;28;20967;-68
2023/08/15 13:47:53;;;;;;;7.00;5.20;;;;;;;;;;5093632;28;20485;-68
2023/08/15 13:50:19;;;;;;;8.13;5.23;;;;;;;;;;5098196;28;20534;-68
2023/08/15 13:52:46;;;;;;;6.97;5.20;;;;;;;;;;5105112;28;20485;-68
2023/08/15 13:55:14;;;;;;;5.80;5.00;;;;;;;;;;5098127;28;20550;-68
2023/08/15 13:57:41;;;;;;;7.07;4.93;;;;;;;;;;5098828;28;20459;-68
2023/08/15 14:00:10;;;;;;;7.13;5.57;;;;;;;;;;5098016;28;20534;-69
2023/08/15 14:02:37;;;;;;;6.33;5.20;;;;;;;;;;5106637;28;20458;-68
2023/08/15 14:05:03;;;;;;;6.67;4.97;;;;;;;;;;5098567;28;20451;-69
2023/08/15 14:07:30;;;;;;;11.77;5.53;;;;;;;;;;5099459;28;20463;-68
2023/08/15 14:09:56;;;;;;;10.57;4.97;;;;;;;;;;5102517;28;20478;-68
2023/08/15 14:12:24;;;;;;;8.87;5.50;;;;;;;;;;5101495;28;20967;-69
2023/08/15 14:14:51;;;;;;;7.33;4.90;;;;;;;;;;5098577;28;20478;-68
2023/08/15 14:17:18;;;;;;;8.13;5.30;;;;;;;;;;5097491;28;20527;-68
2023/08/15 14:19:45;;;;;;;8.53;5.10;;;;;;;;;;5098074;28;20908;-68
2023/08/15 14:22:11;;;;;;;8.40;5.07;;;;;;;;;;5096789;28;20550;-68
2023/08/15 14:24:38;;;;;;;9.13;4.47;;;;;;;;;;5100132;28;20559;-69
2023/08/15 14:27:04;;;;;;;6.07;4.33;;;;;;;;;;5098180;28;20524;-69
2023/08/15 14:29:31;;;;;;;6.63;4.53;;;;;;;;;;5093164;28;20493;-68
2023/08/15 14:31:57;;;;;;;5.73;3.80;;;;;;;;;;5098171;28;20515;-68
2023/08/15 14:34:25;;;;;;;7.97;4.17;;;;;;;;;;5097570;28;20567;-68
2023/08/15 14:36:51;;;;;;;6.03;4.67;;;;;;;;;;5099022;28;20551;-68
2023/08/15 14:39:18;;;;;;;5.50;4.17;;;;;;;;;;5106119;28;20634;-68